sensor_id;sensor_type;location;lat;lon;timestamp;temperature;humidity
64715;DHT22;51144;53.002;6.506;2022-11-09T00:01:35;12.20;99.90
64715;DHT22;51144;53.002;6.506;2022-11-09T00:04:02;12.20;99.90
64715;DHT22;51144;53.002;6.506;2022-11-09T00:06:29;12.20;99.90
64715;DHT22;51144;53.002;6.506;2022-11-09T00:08:56;12.20;99.90
64715;DHT22;51144;53.002;6.506;2022-11-09T00:11:22;12.10;99.90
64715;DHT22;51144;53.002;6.506;2022-11-09T00:13:47;12.10;99.90
64715;DHT22;51144;53.002;6.506;2022-11-09T00:16:16;12.10;99.90
64715;DHT22;51144;53.002;6.506;2022-11-09T00:18:42;12.20;99.90
64715;DHT22;51144;53.002;6.506;2022-11-09T00:21:19;12.10;99.90
64715;DHT22;51144;53.002;6.506;2022-11-09T00:23:45;12.10;99.90
64715;DHT22;51144;53.002;6.506;2022-11-09T00:26:12;12.10;99.90
64715;DHT22;51144;53.002;6.506;2022-11-09T00:28:38;12.10;99.90
64715;DHT22;51144;53.002;6.506;2022-11-09T00:31:06;12.00;99.90
64715;DHT22;51144;53.002;6.506;2022-11-09T00:33:32;12.00;99.90
64715;DHT22;51144;53.002;6.506;2022-11-09T00:35:58;12.00;99.90
64715;DHT22;51144;53.002;6.506;2022-11-09T00:38:24;11.90;99.90
64715;DHT22;51144;53.002;6.506;2022-11-09T00:40:49;11.90;99.90
64715;DHT22;51144;53.002;6.506;2022-11-09T00:43:15;11.90;99.90
64715;DHT22;51144;53.002;6.506;2022-11-09T00:45:41;11.90;99.90
64715;DHT22;51144;53.002;6.506;2022-11-09T00:48:07;11.90;99.90
64715;DHT22;51144;53.002;6.506;2022-11-09T00:50:33;12.00;99.90
64715;DHT22;51144;53.002;6.506;2022-11-09T00:52:59;12.00;99.90
64715;DHT22;51144;53.002;6.506;2022-11-09T00:55:25;12.00;99.90
64715;DHT22;51144;53.002;6.506;2022-11-09T00:57:51;12.10;99.90
64715;DHT22;51144;53.002;6.506;2022-11-09T01:00:19;12.10;99.90
64715;DHT22;51144;53.002;6.506;2022-11-09T01:02:45;12.20;99.90
64715;DHT22;51144;53.002;6.506;2022-11-09T01:05:11;12.20;99.90
64715;DHT22;51144;53.002;6.506;2022-11-09T01:07:37;12.20;99.90
64715;DHT22;51144;53.002;6.506;2022-11-09T01:10:04;12.30;99.90
64715;DHT22;51144;53.002;6.506;2022-11-09T01:12:31;12.30;99.90
64715;DHT22;51144;53.002;6.506;2022-11-09T01:14:56;12.30;99.90
64715;DHT22;51144;53.002;6.506;2022-11-09T01:17:22;12.30;99.90
64715;DHT22;51144;53.002;6.506;2022-11-09T01:19:48;12.30;99.90
64715;DHT22;51144;53.002;6.506;2022-11-09T01:22:14;12.30;99.90
64715;DHT22;51144;53.002;6.506;2022-11-09T01:24:40;12.30;99.90
64715;DHT22;51144;53.002;6.506;2022-11-09T01:27:05;12.30;99.90
64715;DHT22;51144;53.002;6.506;2022-11-09T01:29:31;12.30;99.90
64715;DHT22;51144;53.002;6.506;2022-11-09T01:31:56;12.20;99.90
64715;DHT22;51144;53.002;6.506;2022-11-09T01:34:22;12.20;99.90
64715;DHT22;51144;53.002;6.506;2022-11-09T01:36:51;12.20;99.90
64715;DHT22;51144;53.002;6.506;2022-11-09T01:39:17;12.30;99.90
64715;DHT22;51144;53.002;6.506;2022-11-09T01:41:44;12.30;99.90
64715;DHT22;51144;53.002;6.506;2022-11-09T01:46:49;12.30;99.90
64715;DHT22;51144;53.002;6.506;2022-11-09T01:52:15;12.30;99.90
64715;DHT22;51144;53.002;6.506;2022-11-09T01:54:46;12.30;99.90
64715;DHT22;51144;53.002;6.506;2022-11-09T01:57:20;12.30;99.90
64715;DHT22;51144;53.002;6.506;2022-11-09T01:59:51;12.30;99.90
64715;DHT22;51144;53.002;6.506;2022-11-09T02:02:19;12.30;99.90
64715;DHT22;51144;53.002;6.506;2022-11-09T02:04:51;12.30;99.90
64715;DHT22;51144;53.002;6.506;2022-11-09T02:07:20;12.20;99.90
64715;DHT22;51144;53.002;6.506;2022-11-09T02:09:59;12.30;99.90
64715;DHT22;51144;53.002;6.506;2022-11-09T02:12:28;12.30;99.90
64715;DHT22;51144;53.002;6.506;2022-11-09T02:14:55;12.40;99.90
64715;DHT22;51144;53.002;6.506;2022-11-09T02:17:22;12.40;99.90
64715;DHT22;51144;53.002;6.506;2022-11-09T02:19:47;12.40;99.90
64715;DHT22;51144;53.002;6.506;2022-11-09T02:22:14;12.30;99.90
64715;DHT22;51144;53.002;6.506;2022-11-09T02:24:39;12.30;99.90
64715;DHT22;51144;53.002;6.506;2022-11-09T02:27:05;12.30;99.90
64715;DHT22;51144;53.002;6.506;2022-11-09T02:29:37;12.40;99.90
64715;DHT22;51144;53.002;6.506;2022-11-09T02:32:16;12.30;99.90
64715;DHT22;51144;53.002;6.506;2022-11-09T02:34:43;12.30;99.90
64715;DHT22;51144;53.002;6.506;2022-11-09T02:37:09;12.30;99.90
64715;DHT22;51144;53.002;6.506;2022-11-09T02:39:34;12.30;99.90
64715;DHT22;51144;53.002;6.506;2022-11-09T02:42:11;12.30;99.90
64715;DHT22;51144;53.002;6.506;2022-11-09T02:44:44;12.30;99.90
64715;DHT22;51144;53.002;6.506;2022-11-09T02:47:11;12.30;99.90
64715;DHT22;51144;53.002;6.506;2022-11-09T02:49:37;12.30;99.90
64715;DHT22;51144;53.002;6.506;2022-11-09T02:52:03;12.20;99.90
64715;DHT22;51144;53.002;6.506;2022-11-09T02:54:28;12.20;99.90
64715;DHT22;51144;53.002;6.506;2022-11-09T02:56:54;12.20;99.90
64715;DHT22;51144;53.002;6.506;2022-11-09T02:59:20;12.20;99.90
64715;DHT22;51144;53.002;6.506;2022-11-09T03:01:45;12.20;99.90
64715;DHT22;51144;53.002;6.506;2022-11-09T03:04:11;12.20;99.90
64715;DHT22;51144;53.002;6.506;2022-11-09T03:06:37;12.10;99.90
64715;DHT22;51144;53.002;6.506;2022-11-09T03:09:07;12.10;99.90
64715;DHT22;51144;53.002;6.506;2022-11-09T03:11:36;12.10;99.90
64715;DHT22;51144;53.002;6.506;2022-11-09T03:14:03;12.10;99.90
64715;DHT22;51144;53.002;6.506;2022-11-09T03:16:29;12.10;99.90
64715;DHT22;51144;53.002;6.506;2022-11-09T03:18:54;12.00;99.90
64715;DHT22;51144;53.002;6.506;2022-11-09T03:21:21;12.00;99.90
64715;DHT22;51144;53.002;6.506;2022-11-09T03:23:48;12.00;99.90
64715;DHT22;51144;53.002;6.506;2022-11-09T03:26:14;11.90;99.90
64715;DHT22;51144;53.002;6.506;2022-11-09T03:28:40;11.90;99.90
64715;DHT22;51144;53.002;6.506;2022-11-09T03:31:06;11.90;99.90
64715;DHT22;51144;53.002;6.506;2022-11-09T03:33:32;11.90;99.90
64715;DHT22;51144;53.002;6.506;2022-11-09T03:35:58;11.90;99.90
64715;DHT22;51144;53.002;6.506;2022-11-09T03:38:24;11.90;99.90
64715;DHT22;51144;53.002;6.506;2022-11-09T03:40:49;11.90;99.90
64715;DHT22;51144;53.002;6.506;2022-11-09T03:43:15;11.90;99.90
64715;DHT22;51144;53.002;6.506;2022-11-09T03:45:41;11.80;99.90
64715;DHT22;51144;53.002;6.506;2022-11-09T03:48:07;11.80;99.90
64715;DHT22;51144;53.002;6.506;2022-11-09T03:50:33;11.80;99.90
64715;DHT22;51144;53.002;6.506;2022-11-09T03:53:00;11.80;99.90
64715;DHT22;51144;53.002;6.506;2022-11-09T03:55:27;11.80;99.90
64715;DHT22;51144;53.002;6.506;2022-11-09T03:57:53;11.80;99.90
64715;DHT22;51144;53.002;6.506;2022-11-09T04:00:21;11.70;99.90
64715;DHT22;51144;53.002;6.506;2022-11-09T04:02:47;11.80;99.90
64715;DHT22;51144;53.002;6.506;2022-11-09T04:05:13;11.80;99.90
64715;DHT22;51144;53.002;6.506;2022-11-09T04:07:39;11.80;99.90
64715;DHT22;51144;53.002;6.506;2022-11-09T04:10:06;11.70;99.90
64715;DHT22;51144;53.002;6.506;2022-11-09T04:12:32;11.70;99.90
64715;DHT22;51144;53.002;6.506;2022-11-09T04:14:57;11.70;99.90
64715;DHT22;51144;53.002;6.506;2022-11-09T04:17:23;11.70;99.90
64715;DHT22;51144;53.002;6.506;2022-11-09T04:19:48;11.70;99.90
64715;DHT22;51144;53.002;6.506;2022-11-09T04:22:14;11.70;99.90
64715;DHT22;51144;53.002;6.506;2022-11-09T04:24:40;11.80;99.90
64715;DHT22;51144;53.002;6.506;2022-11-09T04:27:06;11.80;99.90
64715;DHT22;51144;53.002;6.506;2022-11-09T04:29:31;11.80;99.90
64715;DHT22;51144;53.002;6.506;2022-11-09T04:31:57;11.80;99.90
64715;DHT22;51144;53.002;6.506;2022-11-09T04:34:22;11.80;99.90
64715;DHT22;51144;53.002;6.506;2022-11-09T04:36:48;11.80;99.90
64715;DHT22;51144;53.002;6.506;2022-11-09T04:39:14;11.80;99.90
64715;DHT22;51144;53.002;6.506;2022-11-09T04:41:39;11.80;99.90
64715;DHT22;51144;53.002;6.506;2022-11-09T04:44:05;11.80;99.90
64715;DHT22;51144;53.002;6.506;2022-11-09T04:46:31;11.70;99.90
64715;DHT22;51144;53.002;6.506;2022-11-09T04:48:56;11.70;99.90
64715;DHT22;51144;53.002;6.506;2022-11-09T04:51:22;11.70;99.90
64715;DHT22;51144;53.002;6.506;2022-11-09T04:53:47;11.70;99.90
64715;DHT22;51144;53.002;6.506;2022-11-09T04:56:13;11.80;99.90
64715;DHT22;51144;53.002;6.506;2022-11-09T04:58:39;11.80;99.90
64715;DHT22;51144;53.002;6.506;2022-11-09T05:01:10;11.80;99.90
64715;DHT22;51144;53.002;6.506;2022-11-09T05:03:36;11.80;99.90
64715;DHT22;51144;53.002;6.506;2022-11-09T05:06:02;11.90;99.90
64715;DHT22;51144;53.002;6.506;2022-11-09T05:08:47;11.90;99.90
64715;DHT22;51144;53.002;6.506;2022-11-09T05:11:13;11.90;99.90
64715;DHT22;51144;53.002;6.506;2022-11-09T05:13:38;11.90;99.90
64715;DHT22;51144;53.002;6.506;2022-11-09T05:16:04;12.00;99.90
64715;DHT22;51144;53.002;6.506;2022-11-09T05:18:30;12.00;99.90
64715;DHT22;51144;53.002;6.506;2022-11-09T05:20:59;12.00;99.90
64715;DHT22;51144;53.002;6.506;2022-11-09T05:23:25;12.00;99.90
64715;DHT22;51144;53.002;6.506;2022-11-09T05:26:09;12.00;99.90
64715;DHT22;51144;53.002;6.506;2022-11-09T05:28:35;12.10;99.90
64715;DHT22;51144;53.002;6.506;2022-11-09T05:31:01;12.10;99.90
64715;DHT22;51144;53.002;6.506;2022-11-09T05:33:27;12.10;99.90
64715;DHT22;51144;53.002;6.506;2022-11-09T05:35:53;12.10;99.90
64715;DHT22;51144;53.002;6.506;2022-11-09T05:38:20;12.10;99.90
64715;DHT22;51144;53.002;6.506;2022-11-09T05:40:47;12.10;99.90
64715;DHT22;51144;53.002;6.506;2022-11-09T05:43:13;12.10;99.90
64715;DHT22;51144;53.002;6.506;2022-11-09T05:45:40;12.10;99.90
64715;DHT22;51144;53.002;6.506;2022-11-09T05:48:06;12.00;99.90
64715;DHT22;51144;53.002;6.506;2022-11-09T05:50:31;12.00;99.90
64715;DHT22;51144;53.002;6.506;2022-11-09T05:52:58;11.90;99.90
64715;DHT22;51144;53.002;6.506;2022-11-09T12:41:01;14.50;99.90
64715;DHT22;51144;53.002;6.506;2022-11-09T12:46:05;14.40;99.90
64715;DHT22;51144;53.002;6.506;2022-11-09T12:48:34;14.30;99.90
64715;DHT22;51144;53.002;6.506;2022-11-09T12:51:01;14.20;99.90
64715;DHT22;51144;53.002;6.506;2022-11-09T12:53:32;14.30;99.90
64715;DHT22;51144;53.002;6.506;2022-11-09T12:58:33;14.10;99.90
64715;DHT22;51144;53.002;6.506;2022-11-09T13:01:01;14.10;99.90
64715;DHT22;51144;53.002;6.506;2022-11-09T13:03:30;14.10;99.90
64715;DHT22;51144;53.002;6.506;2022-11-09T13:06:15;14.00;99.90
64715;DHT22;51144;53.002;6.506;2022-11-09T13:11:48;13.90;99.90
64715;DHT22;51144;53.002;6.506;2022-11-09T13:16:55;13.90;99.90
64715;DHT22;51144;53.002;6.506;2022-11-09T13:24:54;14.00;99.90
64715;DHT22;51144;53.002;6.506;2022-11-09T13:27:42;14.00;99.90
64715;DHT22;51144;53.002;6.506;2022-11-09T13:38:18;14.40;99.90
64715;DHT22;51144;53.002;6.506;2022-11-09T13:44:06;14.60;99.90
64715;DHT22;51144;53.002;6.506;2022-11-09T13:46:35;14.70;99.90
64715;DHT22;51144;53.002;6.506;2022-11-09T13:49:01;14.60;99.90
64715;DHT22;51144;53.002;6.506;2022-11-09T13:51:44;14.50;99.90
64715;DHT22;51144;53.002;6.506;2022-11-09T13:56:56;14.40;99.90
64715;DHT22;51144;53.002;6.506;2022-11-09T13:59:32;14.30;99.90
64715;DHT22;51144;53.002;6.506;2022-11-09T14:02:00;14.30;99.90
64715;DHT22;51144;53.002;6.506;2022-11-09T14:04:28;14.20;99.90
64715;DHT22;51144;53.002;6.506;2022-11-09T14:13:15;14.20;99.90
64715;DHT22;51144;53.002;6.506;2022-11-09T14:24:11;13.80;99.90
64715;DHT22;51144;53.002;6.506;2022-11-09T14:26:38;13.70;99.90
64715;DHT22;51144;53.002;6.506;2022-11-09T14:29:21;13.60;99.90
64715;DHT22;51144;53.002;6.506;2022-11-09T14:31:47;13.60;99.90
64715;DHT22;51144;53.002;6.506;2022-11-09T14:34:16;13.50;99.90
64715;DHT22;51144;53.002;6.506;2022-11-09T14:36:43;13.30;99.90
64715;DHT22;51144;53.002;6.506;2022-11-09T14:39:29;13.10;99.90
64715;DHT22;51144;53.002;6.506;2022-11-09T14:41:57;13.00;99.90
64715;DHT22;51144;53.002;6.506;2022-11-09T14:44:28;12.90;99.90
64715;DHT22;51144;53.002;6.506;2022-11-09T14:47:01;12.80;99.90
64715;DHT22;51144;53.002;6.506;2022-11-09T14:49:28;12.70;99.90
64715;DHT22;51144;53.002;6.506;2022-11-09T14:51:53;12.60;99.90
64715;DHT22;51144;53.002;6.506;2022-11-09T14:54:23;12.50;99.90
64715;DHT22;51144;53.002;6.506;2022-11-09T14:56:50;12.40;99.90
64715;DHT22;51144;53.002;6.506;2022-11-09T14:59:31;12.40;99.90
64715;DHT22;51144;53.002;6.506;2022-11-09T15:02:06;12.30;99.90
64715;DHT22;51144;53.002;6.506;2022-11-09T15:05:00;12.30;99.90
64715;DHT22;51144;53.002;6.506;2022-11-09T15:07:32;12.30;99.90
64715;DHT22;51144;53.002;6.506;2022-11-09T15:10:04;12.30;99.90
64715;DHT22;51144;53.002;6.506;2022-11-09T15:12:31;12.20;99.90
64715;DHT22;51144;53.002;6.506;2022-11-09T15:15:03;12.20;99.90
64715;DHT22;51144;53.002;6.506;2022-11-09T15:17:34;12.20;99.90
64715;DHT22;51144;53.002;6.506;2022-11-09T15:40:57;11.90;99.90
64715;DHT22;51144;53.002;6.506;2022-11-09T15:43:22;11.90;99.90
64715;DHT22;51144;53.002;6.506;2022-11-09T15:45:48;11.80;99.90
64715;DHT22;51144;53.002;6.506;2022-11-09T15:48:14;11.80;99.90
64715;DHT22;51144;53.002;6.506;2022-11-09T15:50:40;11.80;99.90
64715;DHT22;51144;53.002;6.506;2022-11-09T15:53:06;11.70;99.90
64715;DHT22;51144;53.002;6.506;2022-11-09T15:55:32;11.70;99.90
64715;DHT22;51144;53.002;6.506;2022-11-09T15:57:57;11.70;99.90
64715;DHT22;51144;53.002;6.506;2022-11-09T16:00:23;11.70;99.90
64715;DHT22;51144;53.002;6.506;2022-11-09T16:02:49;11.70;99.90
64715;DHT22;51144;53.002;6.506;2022-11-09T16:05:15;11.60;99.90
64715;DHT22;51144;53.002;6.506;2022-11-09T16:07:51;11.60;99.90
64715;DHT22;51144;53.002;6.506;2022-11-09T16:10:18;11.60;99.90
64715;DHT22;51144;53.002;6.506;2022-11-09T16:12:51;11.60;99.90
64715;DHT22;51144;53.002;6.506;2022-11-09T16:15:18;11.60;99.90
64715;DHT22;51144;53.002;6.506;2022-11-09T16:17:44;11.60;99.90
64715;DHT22;51144;53.002;6.506;2022-11-09T16:20:10;11.60;99.90
64715;DHT22;51144;53.002;6.506;2022-11-09T16:22:35;11.60;99.90
64715;DHT22;51144;53.002;6.506;2022-11-09T16:25:01;11.50;99.90
64715;DHT22;51144;53.002;6.506;2022-11-09T16:27:27;11.50;99.90
64715;DHT22;51144;53.002;6.506;2022-11-09T16:29:52;11.50;99.90
64715;DHT22;51144;53.002;6.506;2022-11-09T16:32:18;11.40;99.90
64715;DHT22;51144;53.002;6.506;2022-11-09T16:34:44;11.40;99.90
64715;DHT22;51144;53.002;6.506;2022-11-09T16:37:10;11.40;99.90
64715;DHT22;51144;53.002;6.506;2022-11-09T16:39:36;11.40;99.90
64715;DHT22;51144;53.002;6.506;2022-11-09T16:42:05;11.40;99.90
64715;DHT22;51144;53.002;6.506;2022-11-09T16:44:35;11.40;99.90
64715;DHT22;51144;53.002;6.506;2022-11-09T16:47:03;11.40;99.90
64715;DHT22;51144;53.002;6.506;2022-11-09T16:49:30;11.40;99.90
64715;DHT22;51144;53.002;6.506;2022-11-09T16:51:56;11.50;99.90
64715;DHT22;51144;53.002;6.506;2022-11-09T16:54:22;11.40;99.90
64715;DHT22;51144;53.002;6.506;2022-11-09T16:56:47;11.50;99.90
64715;DHT22;51144;53.002;6.506;2022-11-09T16:59:13;11.50;99.90
64715;DHT22;51144;53.002;6.506;2022-11-09T17:01:39;11.50;99.90
64715;DHT22;51144;53.002;6.506;2022-11-09T17:04:05;11.50;99.90
64715;DHT22;51144;53.002;6.506;2022-11-09T17:06:34;11.50;99.90
64715;DHT22;51144;53.002;6.506;2022-11-09T17:09:00;11.50;99.90
64715;DHT22;51144;53.002;6.506;2022-11-09T17:11:26;11.50;99.90
64715;DHT22;51144;53.002;6.506;2022-11-09T17:13:56;11.50;99.90
64715;DHT22;51144;53.002;6.506;2022-11-09T17:16:22;11.40;99.90
64715;DHT22;51144;53.002;6.506;2022-11-09T17:18:48;11.40;99.90
64715;DHT22;51144;53.002;6.506;2022-11-09T17:21:15;11.40;99.90
64715;DHT22;51144;53.002;6.506;2022-11-09T17:23:41;11.40;99.90
64715;DHT22;51144;53.002;6.506;2022-11-09T17:26:08;11.40;99.90
64715;DHT22;51144;53.002;6.506;2022-11-09T17:28:33;11.30;99.90
64715;DHT22;51144;53.002;6.506;2022-11-09T17:31:06;11.30;99.90
64715;DHT22;51144;53.002;6.506;2022-11-09T17:33:32;11.30;99.90
64715;DHT22;51144;53.002;6.506;2022-11-09T17:35:59;11.30;99.90
64715;DHT22;51144;53.002;6.506;2022-11-09T17:38:25;11.20;99.90
64715;DHT22;51144;53.002;6.506;2022-11-09T17:40:51;11.20;99.90
64715;DHT22;51144;53.002;6.506;2022-11-09T17:43:19;11.20;99.90
64715;DHT22;51144;53.002;6.506;2022-11-09T17:45:44;11.10;99.90
64715;DHT22;51144;53.002;6.506;2022-11-09T17:48:10;11.10;99.90
64715;DHT22;51144;53.002;6.506;2022-11-09T17:50:35;11.10;99.90
64715;DHT22;51144;53.002;6.506;2022-11-09T17:53:01;11.00;99.90
64715;DHT22;51144;53.002;6.506;2022-11-09T17:55:27;11.00;99.90
64715;DHT22;51144;53.002;6.506;2022-11-09T17:57:53;11.00;99.90
64715;DHT22;51144;53.002;6.506;2022-11-09T18:00:19;10.90;99.90
64715;DHT22;51144;53.002;6.506;2022-11-09T18:02:44;10.90;99.90
64715;DHT22;51144;53.002;6.506;2022-11-09T18:05:10;10.90;99.90
64715;DHT22;51144;53.002;6.506;2022-11-09T18:07:35;10.90;99.90
64715;DHT22;51144;53.002;6.506;2022-11-09T18:10:01;10.90;99.90
64715;DHT22;51144;53.002;6.506;2022-11-09T18:12:27;10.90;99.90
64715;DHT22;51144;53.002;6.506;2022-11-09T18:14:52;10.80;99.90
64715;DHT22;51144;53.002;6.506;2022-11-09T18:17:18;10.90;99.90
64715;DHT22;51144;53.002;6.506;2022-11-09T18:19:44;10.90;99.90
64715;DHT22;51144;53.002;6.506;2022-11-09T18:22:10;10.90;99.90
64715;DHT22;51144;53.002;6.506;2022-11-09T18:24:35;10.80;99.90
64715;DHT22;51144;53.002;6.506;2022-11-09T18:27:01;10.80;99.90
64715;DHT22;51144;53.002;6.506;2022-11-09T18:29:27;10.80;99.90
64715;DHT22;51144;53.002;6.506;2022-11-09T18:31:53;10.90;99.90
64715;DHT22;51144;53.002;6.506;2022-11-09T18:34:19;10.90;99.90
64715;DHT22;51144;53.002;6.506;2022-11-09T18:36:44;10.90;99.90
64715;DHT22;51144;53.002;6.506;2022-11-09T18:39:10;10.90;99.90
64715;DHT22;51144;53.002;6.506;2022-11-09T18:41:35;10.90;99.90
64715;DHT22;51144;53.002;6.506;2022-11-09T18:44:01;10.90;99.90
64715;DHT22;51144;53.002;6.506;2022-11-09T18:46:27;10.90;99.90
64715;DHT22;51144;53.002;6.506;2022-11-09T18:48:55;10.90;99.90
64715;DHT22;51144;53.002;6.506;2022-11-09T18:51:21;10.90;99.90
64715;DHT22;51144;53.002;6.506;2022-11-09T18:53:48;10.90;99.90
64715;DHT22;51144;53.002;6.506;2022-11-09T18:56:16;10.90;99.90
64715;DHT22;51144;53.002;6.506;2022-11-09T18:58:50;10.90;99.90
64715;DHT22;51144;53.002;6.506;2022-11-09T19:01:21;10.90;99.90
64715;DHT22;51144;53.002;6.506;2022-11-09T19:03:50;10.90;99.90
64715;DHT22;51144;53.002;6.506;2022-11-09T19:06:18;10.80;99.90
64715;DHT22;51144;53.002;6.506;2022-11-09T19:08:44;10.80;99.90
64715;DHT22;51144;53.002;6.506;2022-11-09T19:11:29;10.80;99.90
64715;DHT22;51144;53.002;6.506;2022-11-09T19:13:55;10.80;99.90
64715;DHT22;51144;53.002;6.506;2022-11-09T19:16:22;10.80;99.90
64715;DHT22;51144;53.002;6.506;2022-11-09T19:18:48;10.80;99.90
64715;DHT22;51144;53.002;6.506;2022-11-09T19:23:59;10.80;99.90
64715;DHT22;51144;53.002;6.506;2022-11-09T19:26:25;10.80;99.90
64715;DHT22;51144;53.002;6.506;2022-11-09T19:28:50;10.90;99.90
64715;DHT22;51144;53.002;6.506;2022-11-09T19:31:17;10.80;99.90
64715;DHT22;51144;53.002;6.506;2022-11-09T19:33:44;10.90;99.90
64715;DHT22;51144;53.002;6.506;2022-11-09T19:36:10;10.90;99.90
64715;DHT22;51144;53.002;6.506;2022-11-09T19:38:36;10.90;99.90
64715;DHT22;51144;53.002;6.506;2022-11-09T19:41:05;10.90;99.90
64715;DHT22;51144;53.002;6.506;2022-11-09T19:43:31;10.90;99.90
64715;DHT22;51144;53.002;6.506;2022-11-09T19:45:56;10.90;99.90
64715;DHT22;51144;53.002;6.506;2022-11-09T19:48:22;10.80;99.90
64715;DHT22;51144;53.002;6.506;2022-11-09T19:50:49;10.80;99.90
64715;DHT22;51144;53.002;6.506;2022-11-09T19:53:15;10.80;99.90
64715;DHT22;51144;53.002;6.506;2022-11-09T19:55:41;10.80;99.90
64715;DHT22;51144;53.002;6.506;2022-11-09T19:58:07;10.80;99.90
64715;DHT22;51144;53.002;6.506;2022-11-09T20:00:32;10.70;99.90
64715;DHT22;51144;53.002;6.506;2022-11-09T20:03:00;10.70;99.90
64715;DHT22;51144;53.002;6.506;2022-11-09T20:05:26;10.70;99.90
64715;DHT22;51144;53.002;6.506;2022-11-09T20:07:51;10.70;99.90
64715;DHT22;51144;53.002;6.506;2022-11-09T20:10:17;10.70;99.90
64715;DHT22;51144;53.002;6.506;2022-11-09T20:12:42;10.60;99.90
64715;DHT22;51144;53.002;6.506;2022-11-09T20:15:18;10.60;99.90
64715;DHT22;51144;53.002;6.506;2022-11-09T20:17:44;10.60;99.90
64715;DHT22;51144;53.002;6.506;2022-11-09T20:20:10;10.60;99.90
64715;DHT22;51144;53.002;6.506;2022-11-09T20:22:36;10.50;99.90
64715;DHT22;51144;53.002;6.506;2022-11-09T20:25:03;10.50;99.90
64715;DHT22;51144;53.002;6.506;2022-11-09T20:27:29;10.50;99.90
64715;DHT22;51144;53.002;6.506;2022-11-09T20:29:55;10.40;99.90
64715;DHT22;51144;53.002;6.506;2022-11-09T20:32:21;10.40;99.90
64715;DHT22;51144;53.002;6.506;2022-11-09T20:34:47;10.40;99.90
64715;DHT22;51144;53.002;6.506;2022-11-09T20:37:14;10.40;99.90
64715;DHT22;51144;53.002;6.506;2022-11-09T20:39:40;10.50;99.90
64715;DHT22;51144;53.002;6.506;2022-11-09T20:42:08;10.50;99.90
64715;DHT22;51144;53.002;6.506;2022-11-09T20:44:34;10.50;99.90
64715;DHT22;51144;53.002;6.506;2022-11-09T20:46:59;10.50;99.90
64715;DHT22;51144;53.002;6.506;2022-11-09T20:49:25;10.40;99.90
64715;DHT22;51144;53.002;6.506;2022-11-09T20:51:51;10.40;99.90
64715;DHT22;51144;53.002;6.506;2022-11-09T20:54:17;10.40;99.90
64715;DHT22;51144;53.002;6.506;2022-11-09T20:56:42;10.40;99.90
64715;DHT22;51144;53.002;6.506;2022-11-09T20:59:10;10.30;99.90
64715;DHT22;51144;53.002;6.506;2022-11-09T21:01:36;10.30;99.90
64715;DHT22;51144;53.002;6.506;2022-11-09T21:04:02;10.30;99.90
64715;DHT22;51144;53.002;6.506;2022-11-09T21:06:28;10.20;99.90
64715;DHT22;51144;53.002;6.506;2022-11-09T21:08:54;10.20;99.90
64715;DHT22;51144;53.002;6.506;2022-11-09T21:11:25;10.20;99.90
64715;DHT22;51144;53.002;6.506;2022-11-09T21:13:59;10.20;99.90
64715;DHT22;51144;53.002;6.506;2022-11-09T21:16:25;10.20;99.90
64715;DHT22;51144;53.002;6.506;2022-11-09T21:18:51;10.10;99.90
64715;DHT22;51144;53.002;6.506;2022-11-09T21:21:21;10.20;99.90
64715;DHT22;51144;53.002;6.506;2022-11-09T21:23:47;10.10;99.90
64715;DHT22;51144;53.002;6.506;2022-11-09T21:26:32;10.10;99.90
64715;DHT22;51144;53.002;6.506;2022-11-09T21:29:19;10.10;99.90
64715;DHT22;51144;53.002;6.506;2022-11-09T21:32:04;10.10;99.90
64715;DHT22;51144;53.002;6.506;2022-11-09T21:34:30;10.10;99.90
64715;DHT22;51144;53.002;6.506;2022-11-09T21:36:56;10.10;99.90
64715;DHT22;51144;53.002;6.506;2022-11-09T21:39:21;10.10;99.90
64715;DHT22;51144;53.002;6.506;2022-11-09T21:41:47;10.10;99.90
64715;DHT22;51144;53.002;6.506;2022-11-09T21:44:13;10.10;99.90
64715;DHT22;51144;53.002;6.506;2022-11-09T21:46:40;10.10;99.90
64715;DHT22;51144;53.002;6.506;2022-11-09T21:49:07;10.10;99.90
64715;DHT22;51144;53.002;6.506;2022-11-09T21:51:34;10.10;99.90
64715;DHT22;51144;53.002;6.506;2022-11-09T21:54:00;10.10;99.90
64715;DHT22;51144;53.002;6.506;2022-11-09T21:56:27;10.10;99.90
64715;DHT22;51144;53.002;6.506;2022-11-09T21:58:52;10.00;99.90
64715;DHT22;51144;53.002;6.506;2022-11-09T22:01:18;10.00;99.90
64715;DHT22;51144;53.002;6.506;2022-11-09T22:03:45;10.00;99.90
64715;DHT22;51144;53.002;6.506;2022-11-09T22:06:11;10.00;99.90
64715;DHT22;51144;53.002;6.506;2022-11-09T22:08:38;9.90;99.90
64715;DHT22;51144;53.002;6.506;2022-11-09T22:11:09;9.90;99.90
64715;DHT22;51144;53.002;6.506;2022-11-09T22:13:35;9.90;99.90
64715;DHT22;51144;53.002;6.506;2022-11-09T22:16:21;9.90;99.90
64715;DHT22;51144;53.002;6.506;2022-11-09T22:18:47;9.90;99.90
64715;DHT22;51144;53.002;6.506;2022-11-09T22:21:31;9.90;99.90
64715;DHT22;51144;53.002;6.506;2022-11-09T22:23:58;9.90;99.90
64715;DHT22;51144;53.002;6.506;2022-11-09T22:26:25;9.90;99.90
64715;DHT22;51144;53.002;6.506;2022-11-09T22:28:51;10.00;99.90
64715;DHT22;51144;53.002;6.506;2022-11-09T22:31:16;10.00;99.90
64715;DHT22;51144;53.002;6.506;2022-11-09T22:33:42;10.00;99.90
64715;DHT22;51144;53.002;6.506;2022-11-09T22:36:09;10.00;99.90
64715;DHT22;51144;53.002;6.506;2022-11-09T22:38:35;10.10;99.90
64715;DHT22;51144;53.002;6.506;2022-11-09T22:41:04;10.00;99.90
64715;DHT22;51144;53.002;6.506;2022-11-09T22:43:34;10.00;99.90
64715;DHT22;51144;53.002;6.506;2022-11-09T22:46:15;10.00;99.90
64715;DHT22;51144;53.002;6.506;2022-11-09T22:48:42;10.00;99.90
64715;DHT22;51144;53.002;6.506;2022-11-09T22:51:10;9.90;99.90
64715;DHT22;51144;53.002;6.506;2022-11-09T22:53:36;9.90;99.90
64715;DHT22;51144;53.002;6.506;2022-11-09T22:56:02;9.90;99.90
64715;DHT22;51144;53.002;6.506;2022-11-09T22:58:29;9.80;99.90
64715;DHT22;51144;53.002;6.506;2022-11-09T23:01:03;9.80;99.90
64715;DHT22;51144;53.002;6.506;2022-11-09T23:03:29;9.70;99.90
64715;DHT22;51144;53.002;6.506;2022-11-09T23:06:03;9.80;99.90
64715;DHT22;51144;53.002;6.506;2022-11-09T23:08:29;9.70;99.90
64715;DHT22;51144;53.002;6.506;2022-11-09T23:10:55;9.70;99.90
64715;DHT22;51144;53.002;6.506;2022-11-09T23:13:21;9.70;99.90
64715;DHT22;51144;53.002;6.506;2022-11-09T23:15:58;9.70;99.90
64715;DHT22;51144;53.002;6.506;2022-11-09T23:18:25;9.70;99.90
64715;DHT22;51144;53.002;6.506;2022-11-09T23:21:09;9.70;99.90
64715;DHT22;51144;53.002;6.506;2022-11-09T23:23:36;9.70;99.90
64715;DHT22;51144;53.002;6.506;2022-11-09T23:26:01;9.70;99.90
64715;DHT22;51144;53.002;6.506;2022-11-09T23:28:28;9.70;99.90
64715;DHT22;51144;53.002;6.506;2022-11-09T23:31:00;9.70;99.90
64715;DHT22;51144;53.002;6.506;2022-11-09T23:33:27;9.70;99.90
64715;DHT22;51144;53.002;6.506;2022-11-09T23:35:53;9.70;99.90